createdAt,value
2018-10-12T00:01:46.362Z,22.82
2018-10-12T00:05:11.566Z,27.70
2018-10-12T00:08:36.069Z,28.15
2018-10-12T00:12:00.556Z,28.98
2018-10-12T00:15:25.607Z,27.10
2018-10-12T00:18:50.065Z,26.93
2018-10-12T00:22:14.636Z,33.70
2018-10-12T00:25:39.108Z,26.68
2018-10-12T00:29:03.541Z,25.30
2018-10-12T00:32:27.974Z,25.12
2018-10-12T00:35:52.540Z,25.32
2018-10-12T00:39:16.997Z,28.98
2018-10-12T00:42:41.462Z,28.42
2018-10-12T00:46:05.962Z,34.40
2018-10-12T00:49:30.470Z,30.75
2018-10-12T00:52:54.967Z,29.23
2018-10-12T00:56:19.445Z,37.28
2018-10-12T00:59:44.167Z,29.45
2018-10-12T01:03:08.796Z,22.35
2018-10-12T01:06:33.344Z,25.88
2018-10-12T01:09:57.804Z,18.37
2018-10-12T01:13:22.270Z,17.48
2018-10-12T01:16:46.761Z,19.77
2018-10-12T01:20:11.583Z,22.73
2018-10-12T01:23:36.201Z,27.10
2018-10-12T01:27:00.670Z,27.50
2018-10-12T01:30:25.494Z,30.05
2018-10-12T01:33:49.966Z,22.82
2018-10-12T01:37:14.404Z,21.10
2018-10-12T01:40:39.063Z,18.77
2018-10-12T01:44:03.526Z,17.45
2018-10-12T01:47:28.019Z,17.82
2018-10-12T01:50:52.535Z,17.90
2018-10-12T01:54:17.046Z,18.27
2018-10-12T01:57:41.550Z,25.80
2018-10-12T02:01:06.231Z,26.27
2018-10-12T02:04:30.735Z,20.45
2018-10-12T02:07:55.215Z,19.80
2018-10-12T02:11:19.648Z,17.10
2018-10-12T02:14:44.195Z,17.80
2018-10-12T02:18:08.632Z,17.60
2018-10-12T02:21:33.244Z,19.67
2018-10-12T02:24:57.707Z,18.77
2018-10-12T02:28:22.376Z,19.50
2018-10-12T02:31:46.854Z,26.25
2018-10-12T02:35:11.300Z,23.70
2018-10-12T02:38:35.743Z,28.00
2018-10-12T02:42:00.270Z,30.45
2018-10-12T02:45:24.734Z,23.83
2018-10-12T02:48:49.221Z,22.95
2018-10-12T02:52:13.716Z,27.07
2018-10-12T02:55:38.146Z,26.80
2018-10-12T02:59:02.591Z,27.55
2018-10-12T03:02:27.035Z,25.92
2018-10-12T03:05:51.485Z,25.62
2018-10-12T03:09:16.143Z,29.85
2018-10-12T03:12:40.634Z,22.42
2018-10-12T03:16:05.076Z,23.32
2018-10-12T03:19:29.543Z,22.45
2018-10-12T03:22:54.120Z,17.48
2018-10-12T03:26:18.594Z,15.53
2018-10-12T03:29:43.199Z,17.57
2018-10-12T03:33:07.792Z,18.15
2018-10-12T03:36:32.375Z,21.35
2018-10-12T03:39:56.820Z,25.62
2018-10-12T03:43:21.306Z,25.12
2018-10-12T03:46:45.787Z,20.12
2018-10-12T03:50:10.297Z,21.48
2018-10-12T03:53:34.825Z,18.00
2018-10-12T03:56:59.352Z,17.65
2018-10-12T04:00:23.856Z,16.93
2018-10-12T04:03:48.333Z,14.60
2018-10-12T04:07:12.854Z,16.55
2018-10-12T04:10:37.305Z,18.82
2018-10-12T04:14:01.737Z,18.70
2018-10-12T04:17:26.175Z,18.52
2018-10-12T04:20:50.606Z,22.52
2018-10-12T04:24:15.232Z,18.95
2018-10-12T04:27:39.665Z,18.82
2018-10-12T04:31:04.123Z,20.32
2018-10-12T04:34:29.672Z,19.00
2018-10-12T04:37:54.138Z,16.62
2018-10-12T04:41:20.860Z,16.65
2018-10-12T04:44:45.287Z,20.92
2018-10-12T04:48:09.894Z,12.28
2018-10-12T04:51:38.014Z,13.60
2018-10-12T04:55:02.478Z,14.40
2018-10-12T04:58:27.204Z,11.73
2018-10-12T05:01:51.767Z,12.93
2018-10-12T05:05:16.202Z,11.50
2018-10-12T05:08:40.686Z,12.50
2018-10-12T05:12:05.166Z,13.55
2018-10-12T05:15:29.599Z,14.45
2018-10-12T05:18:54.018Z,14.28
2018-10-12T05:22:18.591Z,15.72
2018-10-12T05:25:43.336Z,14.90
2018-10-12T05:29:07.824Z,14.33
2018-10-12T05:32:32.445Z,12.45
2018-10-12T05:36:00.104Z,10.60
2018-10-12T05:39:24.572Z,10.58
2018-10-12T05:42:49.124Z,12.63
2018-10-12T05:46:13.684Z,12.60
2018-10-12T05:50:05.244Z,12.50
2018-10-12T05:53:30.370Z,16.67
2018-10-12T05:56:54.840Z,14.28
2018-10-12T06:00:19.268Z,19.10
2018-10-12T06:03:43.792Z,19.25
2018-10-12T06:07:08.228Z,16.95
2018-10-12T06:10:32.652Z,19.27
2018-10-12T06:13:57.166Z,15.53
2018-10-12T06:17:21.610Z,21.80
2018-10-12T06:20:46.007Z,15.63
2018-10-12T06:24:10.603Z,17.50
2018-10-12T06:27:34.993Z,19.52
2018-10-12T06:30:59.541Z,16.15
2018-10-12T06:34:23.981Z,13.88
2018-10-12T06:37:48.431Z,14.78
2018-10-12T06:41:12.957Z,21.65
2018-10-12T06:44:37.272Z,17.92
2018-10-12T06:48:01.770Z,13.85
2018-10-12T06:51:26.203Z,15.05
2018-10-12T06:54:50.673Z,22.07
2018-10-12T06:58:15.179Z,22.93
2018-10-12T07:01:39.576Z,23.38
2018-10-12T07:05:04.098Z,31.40
2018-10-12T07:08:28.528Z,34.78
2018-10-12T07:11:53.031Z,28.50
2018-10-12T07:15:17.454Z,27.40
2018-10-12T07:18:41.887Z,31.35
2018-10-12T07:22:06.356Z,30.23
2018-10-12T07:25:30.817Z,34.27
2018-10-12T07:28:55.278Z,29.37
2018-10-12T07:32:19.697Z,25.27
2018-10-12T07:35:44.165Z,21.23
2018-10-12T07:39:09.420Z,21.07
2018-10-12T07:42:33.937Z,15.93
2018-10-12T07:45:58.391Z,27.40
2018-10-12T07:49:23.037Z,15.75
2018-10-12T07:52:47.834Z,17.80
2018-10-12T07:56:12.314Z,22.48
2018-10-12T07:59:36.926Z,19.15
2018-10-12T08:03:01.389Z,15.68
2018-10-12T08:06:26.143Z,22.60
2018-10-12T08:09:50.483Z,19.55
2018-10-12T08:13:14.931Z,16.60
2018-10-12T08:16:39.395Z,17.40
2018-10-12T08:20:05.925Z,14.78
2018-10-12T08:23:30.327Z,21.40
2018-10-12T08:26:54.796Z,22.20
2018-10-12T08:30:19.232Z,20.20
2018-10-12T08:33:43.720Z,16.67
2018-10-12T08:37:08.232Z,17.82
2018-10-12T08:40:32.863Z,13.43
2018-10-12T08:43:57.328Z,11.90
2018-10-12T08:47:21.810Z,11.12
2018-10-12T08:50:46.314Z,14.35
2018-10-12T08:54:10.797Z,12.88
2018-10-12T08:57:35.201Z,13.70
2018-10-12T09:00:59.621Z,18.35
2018-10-12T09:04:24.027Z,9.73
2018-10-12T09:07:48.435Z,9.30
2018-10-12T09:11:12.868Z,12.37
2018-10-12T09:14:37.307Z,9.35
2018-10-12T09:18:01.762Z,7.28
2018-10-12T09:21:26.212Z,8.08
2018-10-12T09:24:50.677Z,12.00
2018-10-12T09:28:15.140Z,8.53
2018-10-12T09:31:39.619Z,10.78
2018-10-12T09:35:04.108Z,13.70
2018-10-12T09:38:28.629Z,13.68
2018-10-12T09:41:53.220Z,11.12
2018-10-12T09:45:17.645Z,8.48
2018-10-12T09:48:42.100Z,14.00
2018-10-12T09:52:06.801Z,14.50
2018-10-12T09:55:31.237Z,6.15
2018-10-12T09:58:55.654Z,13.32
2018-10-12T10:02:27.129Z,13.83
2018-10-12T10:05:51.541Z,10.75
2018-10-12T10:09:16.007Z,9.38
2018-10-12T10:12:40.455Z,14.23
2018-10-12T10:16:04.926Z,14.95
2018-10-12T10:19:29.344Z,12.03
2018-10-12T10:22:53.726Z,9.55
2018-10-12T10:26:18.256Z,15.50
2018-10-12T10:29:42.664Z,15.70
2018-10-12T10:33:07.222Z,9.88
2018-10-12T10:36:31.641Z,14.28
2018-10-12T10:39:56.086Z,12.45
2018-10-12T10:43:20.513Z,7.97
2018-10-12T10:46:44.969Z,6.62
2018-10-12T10:50:09.434Z,8.78
2018-10-12T10:53:33.880Z,8.05
2018-10-12T10:57:06.230Z,10.23
2018-10-12T11:00:30.770Z,13.22
2018-10-12T11:03:55.255Z,5.58
2018-10-12T11:07:19.724Z,10.75
2018-10-12T11:10:44.176Z,7.35
2018-10-12T11:14:08.655Z,10.95
2018-10-12T11:17:33.087Z,9.13
2018-10-12T11:20:57.657Z,7.97
2018-10-12T11:24:22.163Z,10.63
2018-10-12T11:27:46.565Z,5.53
2018-10-12T11:31:10.949Z,4.55
2018-10-12T11:34:35.443Z,7.22
2018-10-12T11:37:59.845Z,8.15
2018-10-12T11:41:24.335Z,8.55
2018-10-12T11:44:48.834Z,8.23
2018-10-12T11:48:13.259Z,6.58
2018-10-12T11:51:37.659Z,5.85
2018-10-12T11:55:02.114Z,4.20
2018-10-12T11:58:26.773Z,4.17
2018-10-12T12:01:51.233Z,3.87
2018-10-12T12:05:15.631Z,7.08
2018-10-12T12:08:40.046Z,5.20
2018-10-12T12:12:04.583Z,8.28
2018-10-12T12:15:28.986Z,6.03
2018-10-12T12:18:53.469Z,5.03
2018-10-12T12:22:17.912Z,4.28
2018-10-12T12:25:42.361Z,5.00
2018-10-12T12:29:06.783Z,7.17
2018-10-12T12:32:31.277Z,6.25
2018-10-12T12:35:56.126Z,9.68
2018-10-12T12:39:20.156Z,8.33
2018-10-12T12:42:44.703Z,7.47
2018-10-12T12:46:09.217Z,13.22
2018-10-12T12:49:33.826Z,4.47
2018-10-12T12:52:58.100Z,8.38
2018-10-12T12:56:22.516Z,5.75
2018-10-12T12:59:46.935Z,3.65
2018-10-12T13:03:11.342Z,5.70
2018-10-12T13:06:35.807Z,9.70
2018-10-12T13:10:00.248Z,7.58
2018-10-12T13:13:24.685Z,8.85
2018-10-12T13:16:49.151Z,6.87
2018-10-12T13:20:13.593Z,4.92
2018-10-12T13:23:37.993Z,9.78
2018-10-12T13:27:02.408Z,9.88
2018-10-12T13:30:26.845Z,7.10
2018-10-12T13:33:51.330Z,4.97
2018-10-12T13:37:15.779Z,5.58
2018-10-12T13:40:40.180Z,5.67
2018-10-12T13:44:04.650Z,6.47
2018-10-12T13:47:29.089Z,5.20
2018-10-12T13:50:53.542Z,4.85
2018-10-12T13:54:18.026Z,6.17
2018-10-12T13:57:42.417Z,9.10
2018-10-12T14:01:06.837Z,10.35
2018-10-12T14:04:31.228Z,7.95
2018-10-12T14:07:55.694Z,4.42
2018-10-12T14:11:20.128Z,4.05
2018-10-12T14:14:44.604Z,6.20
2018-10-12T14:18:09.087Z,4.05
2018-10-12T14:21:33.520Z,5.17
2018-10-12T14:24:57.981Z,7.25
2018-10-12T14:28:22.352Z,5.45
2018-10-12T14:31:46.825Z,7.53
2018-10-12T14:35:11.297Z,4.72
2018-10-12T14:38:35.707Z,4.37
2018-10-12T14:42:00.109Z,5.92
2018-10-12T14:45:24.544Z,6.10
2018-10-12T14:48:48.961Z,4.80
2018-10-12T14:52:13.393Z,9.33
2018-10-12T14:55:37.835Z,4.55
2018-10-12T14:59:02.383Z,5.47
2018-10-12T15:02:26.731Z,5.00
2018-10-12T15:05:51.200Z,4.70
2018-10-12T15:09:15.631Z,6.30
2018-10-12T15:12:40.798Z,8.25
2018-10-12T15:16:06.729Z,8.73
2018-10-12T15:19:31.485Z,4.80
2018-10-12T15:22:56.269Z,5.90
2018-10-12T15:26:20.950Z,4.87
2018-10-12T15:29:45.653Z,5.85
2018-10-12T15:33:10.829Z,4.92
2018-10-12T15:36:35.248Z,3.90
2018-10-12T15:40:00.768Z,6.60
2018-10-12T15:43:25.587Z,5.85
2018-10-12T15:46:50.181Z,5.42
2018-10-12T15:50:15.666Z,4.00
2018-10-12T15:53:40.848Z,6.15
2018-10-12T15:57:05.302Z,8.83
2018-10-12T16:00:29.713Z,7.30
2018-10-12T16:03:54.162Z,5.60
2018-10-12T16:07:18.990Z,6.78
2018-10-12T16:10:43.410Z,8.40
2018-10-12T16:14:08.009Z,3.98
2018-10-12T16:17:32.436Z,5.62
2018-10-12T16:20:56.888Z,10.40
2018-10-12T16:24:21.329Z,8.85
2018-10-12T16:27:45.723Z,4.10
2018-10-12T16:31:10.257Z,3.83
2018-10-12T16:34:34.798Z,5.35
2018-10-12T16:37:59.285Z,6.90
2018-10-12T16:41:23.673Z,9.88
2018-10-12T16:44:48.143Z,14.13
2018-10-12T16:48:13.064Z,6.70
2018-10-12T16:51:38.165Z,2.95
2018-10-12T16:55:02.562Z,3.92
2018-10-12T16:58:27.009Z,6.35
2018-10-12T17:01:51.609Z,8.53
2018-10-12T17:05:16.088Z,4.40
2018-10-12T17:08:40.535Z,5.55
2018-10-12T17:12:05.007Z,5.95
2018-10-12T17:15:29.476Z,5.03
2018-10-12T17:18:53.879Z,5.72
2018-10-12T17:22:18.314Z,5.53
2018-10-12T17:25:42.743Z,7.30
2018-10-12T17:29:07.996Z,6.85
2018-10-12T17:32:32.561Z,5.08
2018-10-12T17:35:56.967Z,4.53
2018-10-12T17:39:21.387Z,4.72
2018-10-12T17:42:45.882Z,3.85
2018-10-12T17:46:10.222Z,7.85
2018-10-12T17:49:34.684Z,3.75
2018-10-12T17:52:59.106Z,4.15
2018-10-12T17:56:23.566Z,7.58
2018-10-12T17:59:54.565Z,6.42
2018-10-12T18:03:18.953Z,7.37
2018-10-12T18:06:43.476Z,5.95
2018-10-12T18:10:09.867Z,5.80
2018-10-12T18:13:34.300Z,6.85
2018-10-12T18:16:58.688Z,5.85
2018-10-12T18:20:23.097Z,5.08
2018-10-12T18:23:47.505Z,5.87
2018-10-12T18:27:11.905Z,4.33
2018-10-12T18:30:36.288Z,4.92
2018-10-12T18:34:01.657Z,4.37
2018-10-12T18:37:26.179Z,6.40
2018-10-12T18:40:50.604Z,6.25
2018-10-12T18:44:15.039Z,11.08
2018-10-12T18:47:39.504Z,8.18
2018-10-12T18:51:03.907Z,60.23
2018-10-12T18:54:28.352Z,9.20
2018-10-12T18:57:52.753Z,6.58
2018-10-12T19:01:17.173Z,8.65
2018-10-12T19:04:41.730Z,10.68
2018-10-12T19:08:07.092Z,6.87
2018-10-12T19:11:32.548Z,6.25
2018-10-12T19:14:57.429Z,7.37
2018-10-12T19:18:23.218Z,7.20
2018-10-12T19:21:48.417Z,9.68
2018-10-12T19:25:13.602Z,10.13
2018-10-12T19:28:38.676Z,6.00
2018-10-12T19:32:05.015Z,8.30
2018-10-12T19:35:31.460Z,6.50
2018-10-12T19:38:56.750Z,9.58
2018-10-12T19:42:22.146Z,6.15
2018-10-12T19:45:46.758Z,10.10
2018-10-12T19:49:13.037Z,7.25
2018-10-12T19:52:38.513Z,8.58
2018-10-12T19:56:12.578Z,8.15
2018-10-12T19:59:38.014Z,9.45
2018-10-12T20:03:02.999Z,6.92
2018-10-12T20:06:28.346Z,13.22
2018-10-12T20:09:53.557Z,10.32
2018-10-12T20:13:18.566Z,8.65
2018-10-12T20:16:43.835Z,9.65
2018-10-12T20:20:08.847Z,7.65
2018-10-12T20:23:35.445Z,9.60
2018-10-12T20:27:00.632Z,7.05
2018-10-12T20:30:26.702Z,12.85
2018-10-12T20:33:52.085Z,10.95
2018-10-12T20:37:16.726Z,19.48
2018-10-12T20:40:43.490Z,15.20
2018-10-12T20:44:08.922Z,16.93
2018-10-12T20:47:33.989Z,13.78
2018-10-12T20:50:59.085Z,14.30
2018-10-12T20:54:24.118Z,15.63
2018-10-12T20:57:50.725Z,18.37
2018-10-12T21:01:15.473Z,23.62
2018-10-12T21:04:41.306Z,23.57
2018-10-12T21:08:05.798Z,29.67
2018-10-12T21:11:30.382Z,29.35
2018-10-12T21:14:56.148Z,21.33
2018-10-12T21:18:20.810Z,22.25
2018-10-12T21:21:45.613Z,24.60
2018-10-12T21:25:12.554Z,24.43
2018-10-12T21:28:37.053Z,25.68
2018-10-12T21:32:13.387Z,21.45
2018-10-12T21:35:37.959Z,25.05
2018-10-12T21:39:04.070Z,21.87
2018-10-12T21:42:28.594Z,27.55
2018-10-12T21:45:53.159Z,21.17
2018-10-12T21:49:17.828Z,25.77
2018-10-12T21:52:42.454Z,23.47
2018-10-12T21:56:07.138Z,24.75
2018-10-12T21:59:31.665Z,23.60
2018-10-12T22:02:56.206Z,36.23
2018-10-12T22:06:20.724Z,25.82
2018-10-12T22:09:45.319Z,32.45
2018-10-12T22:13:09.843Z,26.70
2018-10-12T22:16:34.461Z,22.17
2018-10-12T22:19:58.969Z,29.67
2018-10-12T22:23:23.503Z,37.17
2018-10-12T22:26:48.025Z,32.45
2018-10-12T22:30:12.524Z,28.70
2018-10-12T22:33:36.988Z,24.65
2018-10-12T22:37:01.524Z,21.95
2018-10-12T22:40:26.011Z,13.58
2018-10-12T22:43:50.514Z,23.02
2018-10-12T22:47:14.988Z,16.07
2018-10-12T22:50:39.588Z,14.85
2018-10-12T22:54:04.118Z,16.37
2018-10-12T22:57:28.688Z,12.35
2018-10-12T23:00:54.137Z,12.98
2018-10-12T23:04:18.644Z,16.05
2018-10-12T23:07:43.198Z,12.00
2018-10-12T23:11:07.910Z,17.95
2018-10-12T23:14:32.399Z,13.80
2018-10-12T23:17:56.941Z,20.37
2018-10-12T23:21:21.459Z,17.40
2018-10-12T23:24:46.129Z,19.60
2018-10-12T23:28:10.784Z,19.92
2018-10-12T23:31:35.322Z,26.57
2018-10-12T23:34:59.807Z,27.90
2018-10-12T23:38:24.376Z,15.45
2018-10-12T23:41:48.961Z,16.85
2018-10-12T23:45:13.561Z,15.00
2018-10-12T23:48:38.043Z,13.95
2018-10-12T23:52:02.649Z,17.48
2018-10-12T23:55:27.265Z,16.67
2018-10-12T23:58:51.731Z,12.73
